sensor_id;sensor_type;location;lat;lon;timestamp;temperature;humidity
67054;SHT31;53960;51.826;5.850;2023-04-03T00:01:23;5.24;76.25
67054;SHT31;53960;51.826;5.850;2023-04-03T00:03:48;5.28;76.32
67054;SHT31;53960;51.826;5.850;2023-04-03T00:06:13;5.27;76.30
67054;SHT31;53960;51.826;5.850;2023-04-03T00:08:39;5.24;76.21
67054;SHT31;53960;51.826;5.850;2023-04-03T00:11:05;5.32;76.13
67054;SHT31;53960;51.826;5.850;2023-04-03T00:13:33;5.32;75.73
67054;SHT31;53960;51.826;5.850;2023-04-03T00:15:58;5.28;76.15
67054;SHT31;53960;51.826;5.850;2023-04-03T00:18:24;5.29;75.87
67054;SHT31;53960;51.826;5.850;2023-04-03T00:20:49;5.24;76.06
67054;SHT31;53960;51.826;5.850;2023-04-03T00:23:15;5.17;76.17
67054;SHT31;53960;51.826;5.850;2023-04-03T00:25:41;5.14;76.21
67054;SHT31;53960;51.826;5.850;2023-04-03T00:28:07;5.02;76.46
67054;SHT31;53960;51.826;5.850;2023-04-03T00:30:32;5.02;76.74
67054;SHT31;53960;51.826;5.850;2023-04-03T00:32:58;4.99;76.51
67054;SHT31;53960;51.826;5.850;2023-04-03T00:35:24;5.14;76.20
67054;SHT31;53960;51.826;5.850;2023-04-03T00:37:53;5.09;76.13
67054;SHT31;53960;51.826;5.850;2023-04-03T00:40:21;5.02;76.33
67054;SHT31;53960;51.826;5.850;2023-04-03T00:42:48;5.01;76.47
67054;SHT31;53960;51.826;5.850;2023-04-03T00:45:35;5.02;76.60
67054;SHT31;53960;51.826;5.850;2023-04-03T00:48:04;4.98;76.78
67054;SHT31;53960;51.826;5.850;2023-04-03T00:50:32;5.07;76.66
67054;SHT31;53960;51.826;5.850;2023-04-03T00:52:59;5.05;76.59
67054;SHT31;53960;51.826;5.850;2023-04-03T00:55:24;4.91;76.94
67054;SHT31;53960;51.826;5.850;2023-04-03T00:57:51;4.94;76.90
67054;SHT31;53960;51.826;5.850;2023-04-03T01:00:19;4.90;77.16
67054;SHT31;53960;51.826;5.850;2023-04-03T01:02:45;4.92;77.25
67054;SHT31;53960;51.826;5.850;2023-04-03T01:05:10;4.97;77.16
67054;SHT31;53960;51.826;5.850;2023-04-03T01:07:37;4.97;77.07
67054;SHT31;53960;51.826;5.850;2023-04-03T01:10:06;4.91;77.04
67054;SHT31;53960;51.826;5.850;2023-04-03T01:12:37;4.94;77.05
67054;SHT31;53960;51.826;5.850;2023-04-03T01:15:21;4.91;76.76
67054;SHT31;53960;51.826;5.850;2023-04-03T01:17:50;4.87;77.42
67054;SHT31;53960;51.826;5.850;2023-04-03T01:25:49;4.88;77.22
67054;SHT31;53960;51.826;5.850;2023-04-03T01:30:55;4.87;77.57
67054;SHT31;53960;51.826;5.850;2023-04-03T01:33:23;4.80;77.60
67054;SHT31;53960;51.826;5.850;2023-04-03T01:35:49;4.78;77.53
67054;SHT31;53960;51.826;5.850;2023-04-03T01:38:14;4.73;77.89
67054;SHT31;53960;51.826;5.850;2023-04-03T01:40:40;4.61;78.21
67054;SHT31;53960;51.826;5.850;2023-04-03T01:43:05;4.66;78.25
67054;SHT31;53960;51.826;5.850;2023-04-03T01:45:30;4.67;78.11
67054;SHT31;53960;51.826;5.850;2023-04-03T01:47:56;4.61;78.35
67054;SHT31;53960;51.826;5.850;2023-04-03T01:50:21;4.83;77.97
67054;SHT31;53960;51.826;5.850;2023-04-03T01:52:46;4.77;78.06
67054;SHT31;53960;51.826;5.850;2023-04-03T01:55:12;4.74;78.05
67054;SHT31;53960;51.826;5.850;2023-04-03T01:57:37;4.77;78.23
67054;SHT31;53960;51.826;5.850;2023-04-03T02:00:03;4.76;78.04
67054;SHT31;53960;51.826;5.850;2023-04-03T02:02:28;4.70;78.16
67054;SHT31;53960;51.826;5.850;2023-04-03T02:04:54;4.68;78.46
67054;SHT31;53960;51.826;5.850;2023-04-03T02:07:19;4.64;78.60
67054;SHT31;53960;51.826;5.850;2023-04-03T02:09:45;4.60;78.81
67054;SHT31;53960;51.826;5.850;2023-04-03T02:12:10;4.56;79.10
67054;SHT31;53960;51.826;5.850;2023-04-03T02:14:36;4.64;78.98
67054;SHT31;53960;51.826;5.850;2023-04-03T02:17:02;4.59;79.02
67054;SHT31;53960;51.826;5.850;2023-04-03T02:19:34;4.54;79.11
67054;SHT31;53960;51.826;5.850;2023-04-03T02:22:00;4.43;79.60
67054;SHT31;53960;51.826;5.850;2023-04-03T02:24:25;4.47;79.59
67054;SHT31;53960;51.826;5.850;2023-04-03T02:26:50;4.46;79.31
67054;SHT31;53960;51.826;5.850;2023-04-03T02:29:16;4.47;79.19
67054;SHT31;53960;51.826;5.850;2023-04-03T02:31:41;4.49;79.63
67054;SHT31;53960;51.826;5.850;2023-04-03T02:34:06;4.46;79.31
67054;SHT31;53960;51.826;5.850;2023-04-03T02:36:32;4.46;79.42
67054;SHT31;53960;51.826;5.850;2023-04-03T02:38:57;4.38;79.95
67054;SHT31;53960;51.826;5.850;2023-04-03T02:41:22;4.36;79.75
67054;SHT31;53960;51.826;5.850;2023-04-03T02:43:50;4.43;79.49
67054;SHT31;53960;51.826;5.850;2023-04-03T02:46:15;4.32;80.07
67054;SHT31;53960;51.826;5.850;2023-04-03T02:48:41;4.42;79.93
67054;SHT31;53960;51.826;5.850;2023-04-03T02:51:06;4.49;79.62
67054;SHT31;53960;51.826;5.850;2023-04-03T02:53:31;4.40;79.79
67054;SHT31;53960;51.826;5.850;2023-04-03T02:55:57;4.42;79.84
67054;SHT31;53960;51.826;5.850;2023-04-03T02:58:22;4.38;79.70
67054;SHT31;53960;51.826;5.850;2023-04-03T03:00:47;4.36;79.87
67054;SHT31;53960;51.826;5.850;2023-04-03T03:03:13;4.23;80.31
67054;SHT31;53960;51.826;5.850;2023-04-03T03:05:39;4.16;80.38
67054;SHT31;53960;51.826;5.850;2023-04-03T03:08:04;4.20;80.31
67054;SHT31;53960;51.826;5.850;2023-04-03T03:10:30;4.18;80.60
67054;SHT31;53960;51.826;5.850;2023-04-03T03:12:55;4.20;80.32
67054;SHT31;53960;51.826;5.850;2023-04-03T03:15:21;4.19;80.51
67054;SHT31;53960;51.826;5.850;2023-04-03T03:17:46;4.25;80.36
67054;SHT31;53960;51.826;5.850;2023-04-03T03:20:12;4.20;80.12
67054;SHT31;53960;51.826;5.850;2023-04-03T03:22:39;4.16;80.28
67054;SHT31;53960;51.826;5.850;2023-04-03T03:25:04;4.15;80.56
67054;SHT31;53960;51.826;5.850;2023-04-03T03:27:31;4.15;80.31
67054;SHT31;53960;51.826;5.850;2023-04-03T03:29:57;4.19;80.50
67054;SHT31;53960;51.826;5.850;2023-04-03T03:32:22;4.10;80.46
67054;SHT31;53960;51.826;5.850;2023-04-03T03:34:48;4.01;80.71
67054;SHT31;53960;51.826;5.850;2023-04-03T03:37:13;4.06;80.76
67054;SHT31;53960;51.826;5.850;2023-04-03T03:39:38;4.05;80.79
67054;SHT31;53960;51.826;5.850;2023-04-03T03:42:04;4.02;80.76
67054;SHT31;53960;51.826;5.850;2023-04-03T03:44:29;3.98;80.77
67054;SHT31;53960;51.826;5.850;2023-04-03T03:46:55;3.94;80.78
67054;SHT31;53960;51.826;5.850;2023-04-03T03:49:21;3.91;81.15
67054;SHT31;53960;51.826;5.850;2023-04-03T03:51:46;3.75;81.61
67054;SHT31;53960;51.826;5.850;2023-04-03T03:54:12;3.79;81.54
67054;SHT31;53960;51.826;5.850;2023-04-03T03:56:37;3.85;81.44
67054;SHT31;53960;51.826;5.850;2023-04-03T03:59:03;3.81;81.60
67054;SHT31;53960;51.826;5.850;2023-04-03T04:01:28;3.82;81.69
67054;SHT31;53960;51.826;5.850;2023-04-03T04:03:54;3.77;81.18
67054;SHT31;53960;51.826;5.850;2023-04-03T04:06:20;3.63;81.84
67054;SHT31;53960;51.826;5.850;2023-04-03T04:08:45;3.63;82.07
67054;SHT31;53960;51.826;5.850;2023-04-03T04:11:11;3.56;82.24
67054;SHT31;53960;51.826;5.850;2023-04-03T04:13:36;3.56;82.26
67054;SHT31;53960;51.826;5.850;2023-04-03T04:16:02;3.58;82.09
67054;SHT31;53960;51.826;5.850;2023-04-03T04:18:27;3.51;82.37
67054;SHT31;53960;51.826;5.850;2023-04-03T04:20:52;3.61;82.39
67054;SHT31;53960;51.826;5.850;2023-04-03T04:23:18;3.68;81.82
67054;SHT31;53960;51.826;5.850;2023-04-03T04:25:45;3.71;81.63
67054;SHT31;53960;51.826;5.850;2023-04-03T04:28:11;3.57;81.86
67054;SHT31;53960;51.826;5.850;2023-04-03T04:30:36;3.39;82.45
67054;SHT31;53960;51.826;5.850;2023-04-03T04:33:01;3.40;82.63
67054;SHT31;53960;51.826;5.850;2023-04-03T04:35:27;3.44;82.35
67054;SHT31;53960;51.826;5.850;2023-04-03T04:37:52;3.43;82.64
67054;SHT31;53960;51.826;5.850;2023-04-03T04:40:18;3.46;82.31
67054;SHT31;53960;51.826;5.850;2023-04-03T04:42:43;3.44;82.35
67054;SHT31;53960;51.826;5.850;2023-04-03T04:45:09;3.37;82.48
67054;SHT31;53960;51.826;5.850;2023-04-03T04:47:34;3.39;82.20
67054;SHT31;53960;51.826;5.850;2023-04-03T04:49:59;3.37;82.23
67054;SHT31;53960;51.826;5.850;2023-04-03T04:52:25;3.30;82.55
67054;SHT31;53960;51.826;5.850;2023-04-03T04:54:50;3.22;82.49
67054;SHT31;53960;51.826;5.850;2023-04-03T04:57:15;3.30;82.48
67054;SHT31;53960;51.826;5.850;2023-04-03T04:59:40;3.27;82.64
67054;SHT31;53960;51.826;5.850;2023-04-03T05:02:06;3.22;82.75
67054;SHT31;53960;51.826;5.850;2023-04-03T05:04:31;3.27;82.47
67054;SHT31;53960;51.826;5.850;2023-04-03T05:06:56;3.33;82.46
67054;SHT31;53960;51.826;5.850;2023-04-03T05:09:22;3.15;82.67
67054;SHT31;53960;51.826;5.850;2023-04-03T05:11:47;3.27;82.35
67054;SHT31;53960;51.826;5.850;2023-04-03T05:14:13;3.24;82.46
67054;SHT31;53960;51.826;5.850;2023-04-03T05:16:38;3.31;81.92
67054;SHT31;53960;51.826;5.850;2023-04-03T05:19:04;3.24;82.21
67054;SHT31;53960;51.826;5.850;2023-04-03T05:21:29;3.18;82.37
67054;SHT31;53960;51.826;5.850;2023-04-03T05:23:58;3.23;82.21
67054;SHT31;53960;51.826;5.850;2023-04-03T05:26:24;3.12;82.36
67054;SHT31;53960;51.826;5.850;2023-04-03T05:28:51;3.09;82.66
67054;SHT31;53960;51.826;5.850;2023-04-03T05:31:16;3.08;82.61
67054;SHT31;53960;51.826;5.850;2023-04-03T05:33:42;3.12;82.68
67054;SHT31;53960;51.826;5.850;2023-04-03T05:36:07;3.12;82.84
67054;SHT31;53960;51.826;5.850;2023-04-03T05:38:33;3.16;82.45
67054;SHT31;53960;51.826;5.850;2023-04-03T05:40:58;3.12;82.40
67054;SHT31;53960;51.826;5.850;2023-04-03T05:43:24;3.06;82.80
67054;SHT31;53960;51.826;5.850;2023-04-03T05:45:50;2.99;82.88
67054;SHT31;53960;51.826;5.850;2023-04-03T05:48:16;3.02;83.11
67054;SHT31;53960;51.826;5.850;2023-04-03T05:50:41;3.09;82.61
67054;SHT31;53960;51.826;5.850;2023-04-03T05:53:16;3.06;82.64
67054;SHT31;53960;51.826;5.850;2023-04-03T05:55:42;3.16;82.88
67054;SHT31;53960;51.826;5.850;2023-04-03T05:58:08;3.13;82.80
67054;SHT31;53960;51.826;5.850;2023-04-03T06:00:33;3.15;82.57
67054;SHT31;53960;51.826;5.850;2023-04-03T06:02:58;3.19;82.20
67054;SHT31;53960;51.826;5.850;2023-04-03T06:05:24;3.06;82.54
67054;SHT31;53960;51.826;5.850;2023-04-03T06:07:49;3.06;82.73
67054;SHT31;53960;51.826;5.850;2023-04-03T06:10:15;3.09;82.77
67054;SHT31;53960;51.826;5.850;2023-04-03T06:12:40;3.23;82.27
67054;SHT31;53960;51.826;5.850;2023-04-03T06:15:07;3.23;82.01
67054;SHT31;53960;51.826;5.850;2023-04-03T06:17:33;3.24;82.28
67054;SHT31;53960;51.826;5.850;2023-04-03T06:19:58;3.29;81.84
67054;SHT31;53960;51.826;5.850;2023-04-03T06:22:24;3.29;81.52
67054;SHT31;53960;51.826;5.850;2023-04-03T06:24:50;3.37;81.30
67054;SHT31;53960;51.826;5.850;2023-04-03T06:27:16;3.33;81.14
67054;SHT31;53960;51.826;5.850;2023-04-03T06:29:41;3.51;80.57
67054;SHT31;53960;51.826;5.850;2023-04-03T06:32:07;3.50;80.32
67054;SHT31;53960;51.826;5.850;2023-04-03T06:34:32;3.49;80.49
67054;SHT31;53960;51.826;5.850;2023-04-03T06:36:58;3.51;79.94
67054;SHT31;53960;51.826;5.850;2023-04-03T06:39:23;3.56;79.28
67054;SHT31;53960;51.826;5.850;2023-04-03T06:41:50;3.60;78.99
67054;SHT31;53960;51.826;5.850;2023-04-03T06:44:16;3.57;79.10
67054;SHT31;53960;51.826;5.850;2023-04-03T06:46:42;3.57;78.90
67054;SHT31;53960;51.826;5.850;2023-04-03T06:49:07;3.61;78.63
67054;SHT31;53960;51.826;5.850;2023-04-03T06:51:34;3.56;78.64
67054;SHT31;53960;51.826;5.850;2023-04-03T06:54:00;3.50;78.73
67054;SHT31;53960;51.826;5.850;2023-04-03T06:56:26;3.61;78.49
67054;SHT31;53960;51.826;5.850;2023-04-03T06:58:53;3.61;78.25
67054;SHT31;53960;51.826;5.850;2023-04-03T07:01:20;3.73;78.03
67054;SHT31;53960;51.826;5.850;2023-04-03T07:03:46;3.63;77.83
67054;SHT31;53960;51.826;5.850;2023-04-03T07:06:13;3.73;78.19
67054;SHT31;53960;51.826;5.850;2023-04-03T07:08:39;3.78;77.38
67054;SHT31;53960;51.826;5.850;2023-04-03T07:11:05;3.81;77.41
67054;SHT31;53960;51.826;5.850;2023-04-03T07:13:31;3.82;77.06
67054;SHT31;53960;51.826;5.850;2023-04-03T07:15:57;3.92;76.74
67054;SHT31;53960;51.826;5.850;2023-04-03T07:18:23;3.94;76.42
67054;SHT31;53960;51.826;5.850;2023-04-03T07:20:48;3.99;76.80
67054;SHT31;53960;51.826;5.850;2023-04-03T07:23:14;4.02;76.67
67054;SHT31;53960;51.826;5.850;2023-04-03T07:25:47;4.06;76.50
67054;SHT31;53960;51.826;5.850;2023-04-03T07:28:13;4.03;75.41
67054;SHT31;53960;51.826;5.850;2023-04-03T07:30:43;4.19;74.75
67054;SHT31;53960;51.826;5.850;2023-04-03T07:33:09;4.19;74.09
67054;SHT31;53960;51.826;5.850;2023-04-03T07:35:34;4.13;74.05
67054;SHT31;53960;51.826;5.850;2023-04-03T07:37:59;4.22;73.85
67054;SHT31;53960;51.826;5.850;2023-04-03T07:40:25;4.23;74.20
67054;SHT31;53960;51.826;5.850;2023-04-03T07:42:50;4.28;73.53
67054;SHT31;53960;51.826;5.850;2023-04-03T07:45:16;4.29;72.81
67054;SHT31;53960;51.826;5.850;2023-04-03T07:47:42;4.28;72.68
67054;SHT31;53960;51.826;5.850;2023-04-03T07:50:08;4.32;72.57
67054;SHT31;53960;51.826;5.850;2023-04-03T07:52:33;4.32;71.65
67054;SHT31;53960;51.826;5.850;2023-04-03T07:54:58;4.40;71.56
67054;SHT31;53960;51.826;5.850;2023-04-03T07:57:24;4.49;71.82
67054;SHT31;53960;51.826;5.850;2023-04-03T07:59:49;4.56;70.49
67054;SHT31;53960;51.826;5.850;2023-04-03T08:02:14;4.59;70.58
67054;SHT31;53960;51.826;5.850;2023-04-03T08:04:40;4.59;70.09
67054;SHT31;53960;51.826;5.850;2023-04-03T08:07:05;4.63;70.10
67054;SHT31;53960;51.826;5.850;2023-04-03T08:09:31;4.64;70.62
67054;SHT31;53960;51.826;5.850;2023-04-03T08:11:57;4.71;71.06
67054;SHT31;53960;51.826;5.850;2023-04-03T08:14:22;4.78;69.37
67054;SHT31;53960;51.826;5.850;2023-04-03T08:16:48;4.78;69.94
67054;SHT31;53960;51.826;5.850;2023-04-03T08:19:14;4.90;70.10
67054;SHT31;53960;51.826;5.850;2023-04-03T08:21:41;4.92;67.84
67054;SHT31;53960;51.826;5.850;2023-04-03T08:24:08;5.02;67.09
67054;SHT31;53960;51.826;5.850;2023-04-03T08:26:33;4.99;68.40
67054;SHT31;53960;51.826;5.850;2023-04-03T08:28:59;5.04;67.18
67054;SHT31;53960;51.826;5.850;2023-04-03T08:31:24;5.15;65.36
67054;SHT31;53960;51.826;5.850;2023-04-03T08:33:50;5.18;66.47
67054;SHT31;53960;51.826;5.850;2023-04-03T08:36:18;5.24;65.82
67054;SHT31;53960;51.826;5.850;2023-04-03T08:38:44;5.21;63.63
67054;SHT31;53960;51.826;5.850;2023-04-03T08:41:32;5.22;64.34
67054;SHT31;53960;51.826;5.850;2023-04-03T08:44:37;5.28;64.80
67054;SHT31;53960;51.826;5.850;2023-04-03T08:49:49;5.52;63.07
67054;SHT31;53960;51.826;5.850;2023-04-03T08:52:34;5.60;63.14
67054;SHT31;53960;51.826;5.850;2023-04-03T08:55:03;5.65;61.66
67054;SHT31;53960;51.826;5.850;2023-04-03T08:57:39;5.71;63.49
67054;SHT31;53960;51.826;5.850;2023-04-03T09:02:47;5.74;60.86
67054;SHT31;53960;51.826;5.850;2023-04-03T09:05:19;5.76;58.80
67054;SHT31;53960;51.826;5.850;2023-04-03T09:07:56;5.83;60.65
67054;SHT31;53960;51.826;5.850;2023-04-03T09:10:27;5.94;59.97
67054;SHT31;53960;51.826;5.850;2023-04-03T09:13:05;6.10;59.76
67054;SHT31;53960;51.826;5.850;2023-04-03T09:15:33;6.20;54.74
67054;SHT31;53960;51.826;5.850;2023-04-03T09:18:04;6.32;54.59
67054;SHT31;53960;51.826;5.850;2023-04-03T09:20:44;6.46;53.95
67054;SHT31;53960;51.826;5.850;2023-04-03T09:23:18;6.52;52.03
67054;SHT31;53960;51.826;5.850;2023-04-03T09:25:45;6.58;48.61
67054;SHT31;53960;51.826;5.850;2023-04-03T09:28:11;6.73;48.97
67054;SHT31;53960;51.826;5.850;2023-04-03T09:30:37;6.77;47.59
67054;SHT31;53960;51.826;5.850;2023-04-03T09:33:03;6.82;46.54
67054;SHT31;53960;51.826;5.850;2023-04-03T09:35:31;6.89;45.50
67054;SHT31;53960;51.826;5.850;2023-04-03T09:42:50;7.13;44.44
67054;SHT31;53960;51.826;5.850;2023-04-03T09:45:36;7.20;43.37
67054;SHT31;53960;51.826;5.850;2023-04-03T09:56:00;7.32;42.39
67054;SHT31;53960;51.826;5.850;2023-04-03T10:01:00;7.43;41.09
67054;SHT31;53960;51.826;5.850;2023-04-03T10:03:35;7.54;44.09
67054;SHT31;53960;51.826;5.850;2023-04-03T10:06:02;7.58;41.79
67054;SHT31;53960;51.826;5.850;2023-04-03T10:08:33;7.59;41.47
67054;SHT31;53960;51.826;5.850;2023-04-03T10:11:13;7.51;40.57
67054;SHT31;53960;51.826;5.850;2023-04-03T10:13:49;7.50;41.61
67054;SHT31;53960;51.826;5.850;2023-04-03T10:16:18;7.48;40.84
67054;SHT31;53960;51.826;5.850;2023-04-03T10:18:53;7.58;42.37
67054;SHT31;53960;51.826;5.850;2023-04-03T10:21:43;7.79;41.45
67054;SHT31;53960;51.826;5.850;2023-04-03T10:24:15;7.88;40.83
67054;SHT31;53960;51.826;5.850;2023-04-03T10:26:45;7.95;41.08
67054;SHT31;53960;51.826;5.850;2023-04-03T10:29:52;7.97;40.86
67054;SHT31;53960;51.826;5.850;2023-04-03T10:34:56;8.06;42.05
67054;SHT31;53960;51.826;5.850;2023-04-03T10:37:26;8.20;40.98
67054;SHT31;53960;51.826;5.850;2023-04-03T10:40:00;8.33;40.05
67054;SHT31;53960;51.826;5.850;2023-04-03T10:42:28;8.44;40.60
67054;SHT31;53960;51.826;5.850;2023-04-03T10:45:45;8.36;39.98
67054;SHT31;53960;51.826;5.850;2023-04-03T10:48:33;8.25;40.90
67054;SHT31;53960;51.826;5.850;2023-04-03T10:56:35;8.41;42.82
67054;SHT31;53960;51.826;5.850;2023-04-03T10:59:35;8.37;41.61
67054;SHT31;53960;51.826;5.850;2023-04-03T11:01:57;8.50;42.35
67054;SHT31;53960;51.826;5.850;2023-04-03T11:04:26;8.50;40.71
67054;SHT31;53960;51.826;5.850;2023-04-03T11:07:08;8.50;42.46
67054;SHT31;53960;51.826;5.850;2023-04-03T11:09:38;8.61;41.11
67054;SHT31;53960;51.826;5.850;2023-04-03T11:12:24;8.67;41.14
67054;SHT31;53960;51.826;5.850;2023-04-03T11:14:52;8.78;42.37
67054;SHT31;53960;51.826;5.850;2023-04-03T11:17:27;8.81;43.27
67054;SHT31;53960;51.826;5.850;2023-04-03T11:20:13;8.85;43.15
67054;SHT31;53960;51.826;5.850;2023-04-03T11:22:47;9.02;43.95
67054;SHT31;53960;51.826;5.850;2023-04-03T11:25:19;9.11;42.74
67054;SHT31;53960;51.826;5.850;2023-04-03T11:27:57;9.23;43.08
67054;SHT31;53960;51.826;5.850;2023-04-03T11:30:25;9.14;41.25
67054;SHT31;53960;51.826;5.850;2023-04-03T11:33:18;8.99;42.19
67054;SHT31;53960;51.826;5.850;2023-04-03T11:35:48;9.09;41.87
67054;SHT31;53960;51.826;5.850;2023-04-03T11:38:28;9.02;43.96
67054;SHT31;53960;51.826;5.850;2023-04-03T11:40:56;9.14;44.22
67054;SHT31;53960;51.826;5.850;2023-04-03T11:43:26;9.20;43.42
67054;SHT31;53960;51.826;5.850;2023-04-03T11:51:00;9.26;42.82
67054;SHT31;53960;51.826;5.850;2023-04-03T11:53:29;9.36;45.03
67054;SHT31;53960;51.826;5.850;2023-04-03T11:55:57;9.40;43.00
67054;SHT31;53960;51.826;5.850;2023-04-03T11:58:25;9.58;43.94
67054;SHT31;53960;51.826;5.850;2023-04-03T12:05:49;9.58;43.20
67054;SHT31;53960;51.826;5.850;2023-04-03T12:14:02;9.39;43.51
67054;SHT31;53960;51.826;5.850;2023-04-03T12:29:43;9.70;41.44
67054;SHT31;53960;51.826;5.850;2023-04-03T12:44:07;9.88;43.24
67054;SHT31;53960;51.826;5.850;2023-04-03T12:46:37;10.04;43.90
67054;SHT31;53960;51.826;5.850;2023-04-03T12:49:18;10.01;42.10
67054;SHT31;53960;51.826;5.850;2023-04-03T12:51:47;10.11;42.21
67054;SHT31;53960;51.826;5.850;2023-04-03T12:54:26;10.06;40.13
67054;SHT31;53960;51.826;5.850;2023-04-03T12:57:17;10.08;42.84
67054;SHT31;53960;51.826;5.850;2023-04-03T12:59:43;10.16;42.18
67054;SHT31;53960;51.826;5.850;2023-04-03T13:02:32;10.16;41.62
67054;SHT31;53960;51.826;5.850;2023-04-03T13:05:05;10.11;43.32
67054;SHT31;53960;51.826;5.850;2023-04-03T13:07:34;10.21;43.36
67054;SHT31;53960;51.826;5.850;2023-04-03T13:12:58;10.25;42.80
67054;SHT31;53960;51.826;5.850;2023-04-03T13:15:29;10.18;41.98
67054;SHT31;53960;51.826;5.850;2023-04-03T13:17:55;10.25;44.50
67054;SHT31;53960;51.826;5.850;2023-04-03T13:20:30;10.25;43.14
67054;SHT31;53960;51.826;5.850;2023-04-03T13:23:02;10.12;42.01
67054;SHT31;53960;51.826;5.850;2023-04-03T13:25:32;10.18;44.36
67054;SHT31;53960;51.826;5.850;2023-04-03T13:27:59;10.32;44.26
67054;SHT31;53960;51.826;5.850;2023-04-03T13:30:26;10.43;43.98
67054;SHT31;53960;51.826;5.850;2023-04-03T13:32:53;10.52;43.47
67054;SHT31;53960;51.826;5.850;2023-04-03T13:37:58;10.41;41.25
67054;SHT31;53960;51.826;5.850;2023-04-03T13:40:24;10.35;42.04
67054;SHT31;53960;51.826;5.850;2023-04-03T13:43:28;10.34;43.12
67054;SHT31;53960;51.826;5.850;2023-04-03T13:48:43;10.39;42.12
67054;SHT31;53960;51.826;5.850;2023-04-03T13:53:53;10.59;42.41
67054;SHT31;53960;51.826;5.850;2023-04-03T13:56:39;10.53;41.05
67054;SHT31;53960;51.826;5.850;2023-04-03T14:01:46;10.45;41.14
67054;SHT31;53960;51.826;5.850;2023-04-03T14:04:15;10.50;41.57
67054;SHT31;53960;51.826;5.850;2023-04-03T14:06:41;10.49;42.24
67054;SHT31;53960;51.826;5.850;2023-04-03T14:09:06;10.46;41.98
67054;SHT31;53960;51.826;5.850;2023-04-03T14:11:33;10.50;42.82
67054;SHT31;53960;51.826;5.850;2023-04-03T14:14:01;10.49;42.26
67054;SHT31;53960;51.826;5.850;2023-04-03T14:16:31;10.39;41.55
67054;SHT31;53960;51.826;5.850;2023-04-03T14:18:57;10.24;41.34
67054;SHT31;53960;51.826;5.850;2023-04-03T14:21:22;10.34;41.96
67054;SHT31;53960;51.826;5.850;2023-04-03T14:23:48;10.31;41.38
67054;SHT31;53960;51.826;5.850;2023-04-03T14:26:18;10.35;42.18
67054;SHT31;53960;51.826;5.850;2023-04-03T14:28:45;10.24;41.65
67054;SHT31;53960;51.826;5.850;2023-04-03T14:31:12;10.25;42.98
67054;SHT31;53960;51.826;5.850;2023-04-03T14:33:38;10.22;42.44
67054;SHT31;53960;51.826;5.850;2023-04-03T14:36:23;10.22;42.66
67054;SHT31;53960;51.826;5.850;2023-04-03T14:38:51;10.24;43.53
67054;SHT31;53960;51.826;5.850;2023-04-03T14:41:20;10.28;43.87
67054;SHT31;53960;51.826;5.850;2023-04-03T14:43:46;10.31;44.37
67054;SHT31;53960;51.826;5.850;2023-04-03T14:46:14;10.35;44.75
67054;SHT31;53960;51.826;5.850;2023-04-03T14:48:41;10.32;43.44
67054;SHT31;53960;51.826;5.850;2023-04-03T14:51:06;10.25;44.70
67054;SHT31;53960;51.826;5.850;2023-04-03T14:53:32;10.16;44.16
67054;SHT31;53960;51.826;5.850;2023-04-03T14:55:58;10.26;45.36
67054;SHT31;53960;51.826;5.850;2023-04-03T14:58:23;10.28;44.60
67054;SHT31;53960;51.826;5.850;2023-04-03T15:00:49;10.22;44.72
67054;SHT31;53960;51.826;5.850;2023-04-03T15:03:21;10.31;45.45
67054;SHT31;53960;51.826;5.850;2023-04-03T15:05:49;10.22;44.20
67054;SHT31;53960;51.826;5.850;2023-04-03T15:08:21;10.28;44.21
67054;SHT31;53960;51.826;5.850;2023-04-03T15:10:48;10.22;44.17
67054;SHT31;53960;51.826;5.850;2023-04-03T15:13:14;10.24;43.55
67054;SHT31;53960;51.826;5.850;2023-04-03T15:15:39;10.19;43.43
67054;SHT31;53960;51.826;5.850;2023-04-03T15:18:05;10.19;43.90
67054;SHT31;53960;51.826;5.850;2023-04-03T15:20:31;10.25;44.72
67054;SHT31;53960;51.826;5.850;2023-04-03T15:22:58;10.28;44.97
67054;SHT31;53960;51.826;5.850;2023-04-03T15:25:26;10.35;44.85
67054;SHT31;53960;51.826;5.850;2023-04-03T15:27:53;10.35;44.56
67054;SHT31;53960;51.826;5.850;2023-04-03T15:30:19;10.26;44.38
67054;SHT31;53960;51.826;5.850;2023-04-03T15:32:46;10.18;44.73
67054;SHT31;53960;51.826;5.850;2023-04-03T15:35:11;10.25;45.27
67054;SHT31;53960;51.826;5.850;2023-04-03T15:37:36;10.32;44.96
67054;SHT31;53960;51.826;5.850;2023-04-03T15:40:03;10.22;44.53
67054;SHT31;53960;51.826;5.850;2023-04-03T15:42:29;10.12;44.90
67054;SHT31;53960;51.826;5.850;2023-04-03T15:44:54;10.19;44.80
67054;SHT31;53960;51.826;5.850;2023-04-03T15:47:20;10.18;44.99
67054;SHT31;53960;51.826;5.850;2023-04-03T15:49:45;10.05;44.71
67054;SHT31;53960;51.826;5.850;2023-04-03T15:52:11;10.01;44.84
67054;SHT31;53960;51.826;5.850;2023-04-03T15:54:36;9.88;45.67
67054;SHT31;53960;51.826;5.850;2023-04-03T15:57:01;9.94;44.88
67054;SHT31;53960;51.826;5.850;2023-04-03T15:59:27;9.94;45.72
67054;SHT31;53960;51.826;5.850;2023-04-03T16:01:54;9.97;45.99
67054;SHT31;53960;51.826;5.850;2023-04-03T16:04:19;9.95;46.27
67054;SHT31;53960;51.826;5.850;2023-04-03T16:06:46;9.95;46.96
67054;SHT31;53960;51.826;5.850;2023-04-03T16:09:11;9.91;46.31
67054;SHT31;53960;51.826;5.850;2023-04-03T16:11:37;9.81;47.11
67054;SHT31;53960;51.826;5.850;2023-04-03T16:14:05;9.83;46.62
67054;SHT31;53960;51.826;5.850;2023-04-03T16:16:31;9.83;47.32
67054;SHT31;53960;51.826;5.850;2023-04-03T16:18:56;9.75;48.06
67054;SHT31;53960;51.826;5.850;2023-04-03T16:21:22;9.73;48.07
67054;SHT31;53960;51.826;5.850;2023-04-03T16:23:48;9.73;48.54
67054;SHT31;53960;51.826;5.850;2023-04-03T16:26:14;9.84;48.85
67054;SHT31;53960;51.826;5.850;2023-04-03T16:28:40;9.78;47.75
67054;SHT31;53960;51.826;5.850;2023-04-03T16:31:07;9.67;48.54
67054;SHT31;53960;51.826;5.850;2023-04-03T16:33:32;9.66;49.23
67054;SHT31;53960;51.826;5.850;2023-04-03T16:35:58;9.64;47.54
67054;SHT31;53960;51.826;5.850;2023-04-03T16:38:24;9.54;47.05
67054;SHT31;53960;51.826;5.850;2023-04-03T16:40:49;9.56;47.69
67054;SHT31;53960;51.826;5.850;2023-04-03T16:43:15;9.56;48.03
67054;SHT31;53960;51.826;5.850;2023-04-03T16:45:41;9.50;48.63
67054;SHT31;53960;51.826;5.850;2023-04-03T16:48:07;9.44;48.10
67054;SHT31;53960;51.826;5.850;2023-04-03T16:50:32;9.36;48.05
67054;SHT31;53960;51.826;5.850;2023-04-03T16:52:58;9.20;48.26
67054;SHT31;53960;51.826;5.850;2023-04-03T16:55:23;9.11;48.61
67054;SHT31;53960;51.826;5.850;2023-04-03T16:57:48;9.01;49.03
67054;SHT31;53960;51.826;5.850;2023-04-03T17:00:14;8.99;49.11
67054;SHT31;53960;51.826;5.850;2023-04-03T17:02:40;8.93;49.25
67054;SHT31;53960;51.826;5.850;2023-04-03T17:05:06;8.85;49.76
67054;SHT31;53960;51.826;5.850;2023-04-03T17:07:32;8.85;49.38
67054;SHT31;53960;51.826;5.850;2023-04-03T17:09:57;8.82;49.49
67054;SHT31;53960;51.826;5.850;2023-04-03T17:12:23;8.78;49.25
67054;SHT31;53960;51.826;5.850;2023-04-03T17:14:48;8.75;49.95
67054;SHT31;53960;51.826;5.850;2023-04-03T17:17:14;8.72;49.29
67054;SHT31;53960;51.826;5.850;2023-04-03T17:19:41;8.63;49.89